Time;durP1;ratioP1;P1;durP2;ratioP2;P2;SDS_P1;SDS_P2;PMS_P1;PMS_P2;Temp;Humidity;BMP_temperature;BMP_pressure;BME280_temperature;BME280_humidity;BME280_pressure;Samples;Min_cycle;Max_cycle;Signal;HPM_P1;HPM_P2
2022/07/27 00:01:09;;;;;;;4.28;1.50;;;14.10;1.00;;;;;;5066973;28;20583;-61
2022/07/27 00:03:37;;;;;;;3.15;1.30;;;14.10;1.00;;;;;;5057450;28;20291;-61
2022/07/27 00:06:04;;;;;;;4.65;2.17;;;14.10;1.00;;;;;;5076807;28;20200;-60
2022/07/27 00:08:32;;;;;;;3.72;1.63;;;;;;;;;;5072172;28;20231;-61
2022/07/27 00:10:59;;;;;;;3.40;1.40;;;13.80;1.00;;;;;;5062274;28;20200;-61
2022/07/27 00:13:26;;;;;;;4.15;1.20;;;14.00;1.00;;;;;;5069531;28;20189;-61
2022/07/27 00:15:53;;;;;;;3.28;1.48;;;14.00;1.00;;;;;;5073669;28;20231;-61
2022/07/27 00:18:20;;;;;;;3.88;1.30;;;14.00;1.00;;;;;;5052458;28;20212;-62
2022/07/27 00:20:47;;;;;;;2.10;1.20;;;14.10;1.00;;;;;;5072865;28;20596;-61
2022/07/27 00:23:14;;;;;;;7.82;1.40;;;14.00;1.00;;;;;;5070654;28;20287;-61
2022/07/27 00:25:42;;;;;;;6.95;1.30;;;14.10;1.00;;;;;;5066630;28;20917;-61
2022/07/27 00:28:09;;;;;;;3.70;1.58;;;13.90;1.00;;;;;;5059254;28;20221;-61
2022/07/27 00:30:36;;;;;;;4.28;1.65;;;14.00;1.00;;;;;;5072917;28;20208;-61
2022/07/27 00:33:04;;;;;;;1.85;1.40;;;;;;;;;;5072082;28;20220;-61
2022/07/27 00:35:31;;;;;;;4.90;1.50;;;14.00;1.00;;;;;;5049703;28;20215;-62
2022/07/27 00:37:58;;;;;;;3.45;1.27;;;14.00;1.00;;;;;;5071341;28;20207;-62
2022/07/27 00:40:25;;;;;;;5.70;1.38;;;14.00;1.00;;;;;;5068972;28;20200;-61
2022/07/27 00:42:53;;;;;;;4.47;1.30;;;14.10;1.00;;;;;;5066542;28;20211;-61
2022/07/27 00:45:20;;;;;;;1.20;1.10;;;14.10;1.00;;;;;;5072447;28;20219;-61
2022/07/27 00:47:47;;;;;;;3.13;1.15;;;14.10;1.00;;;;;;5072593;28;20227;-61
2022/07/27 00:50:14;;;;;;;4.78;1.58;;;14.00;1.00;;;;;;5048641;28;20673;-61
2022/07/27 00:52:42;;;;;;;1.73;1.00;;;14.00;1.00;;;;;;5073475;28;20231;-62
2022/07/27 00:55:09;;;;;;;3.00;1.40;;;14.00;1.00;;;;;;5071213;28;21013;-61
2022/07/27 00:57:36;;;;;;;6.85;1.58;;;13.80;1.00;;;;;;5053574;28;20871;-61
2022/07/27 01:00:06;;;;;;;5.35;1.40;;;14.00;1.00;;;;;;5066614;28;20716;-61
2022/07/27 01:02:32;;;;;;;5.70;1.77;;;11.80;1.00;;;;;;5058991;28;20262;-62
2022/07/27 01:04:59;;;;;;;3.22;1.33;;;14.00;1.00;;;;;;5049691;28;20209;-61
2022/07/27 01:07:30;;;;;;;1.45;1.27;;;14.20;1.00;;;;;;5065213;28;20227;-61
2022/07/27 01:09:57;;;;;;;2.63;1.15;;;14.00;1.00;;;;;;5070667;28;20311;-62
2022/07/27 01:12:26;;;;;;;4.43;1.40;;;13.70;1.00;;;;;;5059390;28;20208;-61
2022/07/27 01:14:54;;;;;;;3.88;1.52;;;13.90;1.00;;;;;;5069571;28;20203;-61
2022/07/27 01:17:22;;;;;;;2.92;1.33;;;13.90;1.00;;;;;;5065524;28;20205;-61
2022/07/27 01:19:49;;;;;;;2.35;1.42;;;14.10;6.60;;;;;;5044835;28;20208;-61
2022/07/27 01:22:18;;;;;;;3.00;1.23;;;13.90;1.00;;;;;;5067787;28;20571;-61
2022/07/27 01:24:45;;;;;;;4.70;1.25;;;13.90;1.00;;;;;;5072578;28;20211;-61
2022/07/27 01:27:11;;;;;;;3.08;1.23;;;13.90;1.00;;;;;;5069205;28;20228;-61
2022/07/27 01:29:38;;;;;;;5.80;1.10;;;13.80;1.00;;;;;;5063230;28;20224;-62
2022/07/27 01:32:06;;;;;;;1.95;1.30;;;14.00;1.00;;;;;;5070452;28;20192;-61
2022/07/27 01:34:33;;;;;;;2.67;1.20;;;14.10;1.00;;;;;;5058567;28;20204;-61
2022/07/27 01:37:00;;;;;;;3.58;1.15;;;13.80;1.00;;;;;;5051170;28;20208;-61
2022/07/27 01:39:29;;;;;;;6.53;1.35;;;13.80;1.00;;;;;;5069457;28;20763;-61
2022/07/27 01:41:56;;;;;;;5.70;1.05;;;13.80;1.00;;;;;;5066741;28;20206;-61
2022/07/27 01:44:23;;;;;;;3.75;1.20;;;13.80;1.00;;;;;;5059326;28;21583;-61
2022/07/27 01:46:50;;;;;;;3.85;1.30;;;13.70;1.00;;;;;;5071620;28;20219;-61
2022/07/27 01:49:17;;;;;;;2.35;1.13;;;14.30;1.00;;;;;;5067605;28;20200;-61
2022/07/27 01:51:44;;;;;;;2.85;1.60;;;13.80;1.00;;;;;;5038225;28;20237;-61
2022/07/27 01:54:11;;;;;;;3.60;1.30;;;13.70;1.00;;;;;;5071472;28;20212;-62
2022/07/27 01:56:39;;;;;;;2.85;1.30;;;13.70;1.00;;;;;;5069067;28;20817;-61
2022/07/27 01:59:06;;;;;;;4.03;1.10;;;13.70;1.00;;;;;;5062029;28;20208;-61
2022/07/27 02:01:33;;;;;;;3.60;1.23;;;13.70;1.00;;;;;;5068212;28;20692;-61
2022/07/27 02:03:59;;;;;;;2.50;1.30;;;13.60;1.00;;;;;;5071163;28;20578;-61
2022/07/27 02:06:26;;;;;;;7.55;1.48;;;13.60;1.00;;;;;;5062944;28;20201;-62
2022/07/27 02:08:53;;;;;;;4.30;1.25;;;13.60;1.00;;;;;;5048300;28;20228;-61
2022/07/27 02:14:05;;;;;;;6.50;1.60;;;13.50;1.00;;;;;;5063127;28;20203;-61
2022/07/27 02:16:32;;;;;;;8.10;1.60;;;13.50;1.00;;;;;;5066816;28;20215;-61
2022/07/27 02:18:59;;;;;;;2.42;1.02;;;13.50;1.00;;;;;;5069773;28;20204;-61
2022/07/27 02:21:26;;;;;;;4.97;1.60;;;13.40;1.00;;;;;;5059155;28;20610;-61
2022/07/27 02:23:53;;;;;;;7.60;1.40;;;13.50;1.00;;;;;;5048708;28;20206;-61
2022/07/27 02:26:20;;;;;;;2.60;1.60;;;13.50;1.00;;;;;;5069717;28;20200;-61
2022/07/27 02:28:47;;;;;;;7.90;1.20;;;13.40;1.00;;;;;;5059833;28;20243;-61
2022/07/27 02:31:15;;;;;;;9.00;1.38;;;13.40;1.00;;;;;;5066632;28;20207;-62
2022/07/27 02:33:42;;;;;;;5.45;1.60;;;13.40;1.00;;;;;;5068040;28;20188;-61
2022/07/27 02:36:08;;;;;;;6.47;1.30;;;13.40;1.00;;;;;;5071846;28;21041;-61
2022/07/27 02:38:36;;;;;;;4.82;1.98;;;13.40;1.00;;;;;;5059931;28;20200;-61
2022/07/27 02:41:03;;;;;;;4.75;1.50;;;13.40;1.00;;;;;;5050468;28;20204;-61
2022/07/27 02:43:29;;;;;;;6.15;1.35;;;13.10;1.00;;;;;;5065779;28;20196;-61
2022/07/27 02:45:56;;;;;;;3.20;1.50;;;13.40;1.00;;;;;;5060429;28;20208;-61
2022/07/27 02:48:24;;;;;;;6.13;1.60;;;13.30;1.00;;;;;;5067625;28;20228;-61
2022/07/27 02:50:51;;;;;;;5.60;1.25;;;13.30;1.00;;;;;;5066116;28;20188;-62
2022/07/27 02:53:18;;;;;;;8.38;1.75;;;13.40;1.00;;;;;;5058434;28;20224;-61
2022/07/27 02:55:45;;;;;;;8.25;1.40;;;13.30;1.00;;;;;;5046117;28;20219;-61
2022/07/27 02:58:12;;;;;;;3.65;1.27;;;13.20;1.00;;;;;;5069494;28;20196;-61
2022/07/27 03:00:39;;;;;;;4.00;1.23;;;13.20;1.00;;;;;;5056338;28;20668;-62
2022/07/27 03:03:06;;;;;;;16.63;1.70;;;13.20;1.00;;;;;;5067312;28;20283;-61
2022/07/27 03:05:34;;;;;;;3.38;1.83;;;13.20;1.00;;;;;;5069522;28;20196;-62
2022/07/27 03:08:01;;;;;;;5.90;1.55;;;12.90;1.00;;;;;;5069659;28;20716;-61
2022/07/27 03:10:28;;;;;;;2.58;1.50;;;13.20;1.00;;;;;;5042532;28;21422;-61
2022/07/27 03:12:54;;;;;;;7.07;1.48;;;13.20;1.00;;;;;;5071901;28;20207;-61
2022/07/27 03:15:21;;;;;;;11.05;1.80;;;13.20;1.00;;;;;;5057287;28;20197;-61
2022/07/27 03:17:48;;;;;;;6.68;1.80;;;13.20;1.00;;;;;;5070064;28;20189;-61
2022/07/27 03:20:15;;;;;;;2.53;1.35;;;13.10;1.00;;;;;;5070673;28;20200;-61
2022/07/27 03:22:43;;;;;;;4.72;1.40;;;13.10;1.00;;;;;;5069967;28;20192;-61
2022/07/27 03:25:10;;;;;;;1.85;1.30;;;13.20;1.00;;;;;;5070087;28;20196;-62
2022/07/27 03:27:37;;;;;;;1.83;1.20;;;13.10;1.00;;;;;;5044802;28;20228;-61
2022/07/27 03:30:05;;;;;;;1.52;1.08;;;13.10;1.00;;;;;;5071562;28;20199;-61
2022/07/27 03:32:32;;;;;;;1.83;1.30;;;13.10;1.00;;;;;;5057273;28;20207;-61
2022/07/27 03:34:59;;;;;;;3.63;1.60;;;13.00;1.00;;;;;;5068340;28;20205;-61
2022/07/27 03:37:25;;;;;;;4.70;1.38;;;12.80;1.00;;;;;;5068225;28;20205;-62
2022/07/27 03:39:53;;;;;;;3.42;1.30;;;12.90;1.00;;;;;;5073100;28;20196;-61
2022/07/27 03:42:20;;;;;;;3.08;1.10;;;13.10;1.00;;;;;;5050531;28;20228;-61
2022/07/27 03:44:47;;;;;;;3.08;1.15;;;12.90;1.00;;;;;;5071561;28;20303;-61
2022/07/27 03:47:14;;;;;;;3.45;1.60;;;12.90;1.00;;;;;;5061168;28;20200;-61
2022/07/27 03:49:41;;;;;;;4.03;1.30;;;14.70;1.00;;;;;;5071580;28;20192;-61
2022/07/27 03:52:07;;;;;;;2.35;1.13;;;12.00;1.00;;;;;;5072176;28;20292;-62
2022/07/27 03:54:34;;;;;;;4.95;1.45;;;13.00;1.00;;;;;;5070871;28;20200;-61
2022/07/27 03:57:03;;;;;;;4.00;1.42;;;12.90;1.00;;;;;;5065500;28;20212;-61
2022/07/27 03:59:29;;;;;;;4.97;1.25;;;12.90;1.00;;;;;;5063261;28;20223;-61
2022/07/27 04:01:56;;;;;;;2.55;1.10;;;12.90;1.00;;;;;;5060721;28;20200;-60
2022/07/27 04:04:23;;;;;;;2.65;1.55;;;12.90;1.00;;;;;;5069798;28;20216;-62
2022/07/27 04:06:50;;;;;;;1.70;1.10;;;12.90;1.00;;;;;;5073323;28;20744;-61
2022/07/27 04:09:16;;;;;;;2.63;1.30;;;13.00;8.70;;;;;;5069115;28;21007;-61
2022/07/27 04:11:43;;;;;;;5.70;1.60;;;13.00;17.80;;;;;;5074142;28;20689;-61
2022/07/27 04:14:12;;;;;;;5.22;1.25;;;13.00;14.40;;;;;;5052176;28;20242;-61
2022/07/27 04:16:39;;;;;;;3.00;1.83;;;13.10;19.30;;;;;;5070788;28;20269;-61
2022/07/27 04:19:06;;;;;;;5.32;1.50;;;13.20;20.30;;;;;;5062149;28;20216;-61
2022/07/27 04:21:33;;;;;;;4.07;1.40;;;13.20;17.00;;;;;;5073952;28;20206;-61
2022/07/27 04:24:00;;;;;;;4.53;1.40;;;13.30;19.10;;;;;;5070423;28;20203;-61
2022/07/27 04:26:27;;;;;;;2.67;1.40;;;13.30;19.50;;;;;;5071034;28;20212;-61
2022/07/27 04:28:55;;;;;;;3.38;1.52;;;13.60;25.20;;;;;;5041188;28;20224;-61
2022/07/27 04:31:23;;;;;;;4.97;1.42;;;13.40;23.50;;;;;;5070103;28;20559;-61
2022/07/27 04:33:50;;;;;;;5.15;1.40;;;13.40;23.30;;;;;;5063892;28;20208;-61
2022/07/27 04:36:17;;;;;;;4.38;1.55;;;13.50;29.90;;;;;;5066354;28;20199;-61
2022/07/27 04:38:44;;;;;;;3.75;1.42;;;13.50;27.00;;;;;;5070477;28;20549;-61
2022/07/27 04:41:11;;;;;;;5.43;1.55;;;13.40;32.10;;;;;;5070386;28;20200;-61
2022/07/27 04:43:39;;;;;;;5.35;1.33;;;13.50;28.90;;;;;;5053325;28;20230;-61
2022/07/27 04:46:06;;;;;;;3.72;1.45;;;13.50;36.80;;;;;;5071462;28;20209;-61
2022/07/27 04:48:34;;;;;;;5.15;1.75;;;13.60;35.00;;;;;;5059205;28;20944;-62
2022/07/27 04:51:01;;;;;;;3.25;1.55;;;13.60;30.90;;;;;;5070637;28;20216;-61
2022/07/27 04:53:28;;;;;;;1.90;1.13;;;13.60;28.00;;;;;;5067114;28;20227;-61
2022/07/27 04:55:55;;;;;;;6.38;1.70;;;13.50;25.40;;;;;;5070647;28;20204;-61
2022/07/27 04:58:22;;;;;;;6.40;2.03;;;13.50;25.40;;;;;;5057876;28;20254;-61
2022/07/27 05:00:49;;;;;;;11.38;1.85;;;13.50;25.90;;;;;;5048938;28;20639;-61
2022/07/27 05:03:16;;;;;;;3.97;1.80;;;13.50;27.00;;;;;;5059145;28;20203;-61
2022/07/27 05:05:44;;;;;;;3.65;1.40;;;13.10;28.80;;;;;;5071102;28;20697;-61
2022/07/27 05:08:10;;;;;;;3.08;1.58;;;13.40;26.50;;;;;;5068181;28;20220;-61
2022/07/27 05:10:37;;;;;;;3.25;1.20;;;13.30;34.00;;;;;;5071990;28;20216;-61
2022/07/27 05:13:04;;;;;;;3.08;1.75;;;13.40;36.10;;;;;;5065072;28;20193;-61
2022/07/27 05:15:31;;;;;;;6.20;1.80;;;13.40;40.20;;;;;;5050146;28;20205;-61
2022/07/27 05:17:57;;;;;;;2.30;1.40;;;13.70;45.60;;;;;;5068675;28;20204;-61
2022/07/27 05:20:25;;;;;;;4.30;1.45;;;13.60;48.40;;;;;;5055582;28;20225;-61
2022/07/27 05:22:53;;;;;;;2.83;1.23;;;13.40;48.10;;;;;;5071061;28;20223;-61
2022/07/27 05:25:20;;;;;;;4.20;1.60;;;13.60;45.50;;;;;;5068053;28;20223;-61
2022/07/27 05:27:47;;;;;;;2.97;1.58;;;13.70;43.90;;;;;;5066924;28;20241;-61
2022/07/27 05:30:14;;;;;;;3.65;1.63;;;13.90;37.60;;;;;;5049233;28;20208;-61
2022/07/27 05:32:41;;;;;;;4.05;2.15;;;13.80;33.70;;;;;;5071695;28;20192;-61
2022/07/27 05:35:09;;;;;;;3.92;1.60;;;13.80;26.00;;;;;;5061032;28;20220;-61
2022/07/27 05:37:35;;;;;;;3.17;1.65;;;13.90;23.20;;;;;;5067512;28;20232;-62
2022/07/27 05:40:05;;;;;;;5.65;1.70;;;14.00;12.50;;;;;;5063315;28;20216;-61
2022/07/27 05:42:32;;;;;;;3.45;1.65;;;13.90;9.40;;;;;;5072084;28;20206;-61
2022/07/27 05:44:59;;;;;;;4.90;1.50;;;14.00;5.10;;;;;;5063803;28;20200;-62
2022/07/27 05:47:26;;;;;;;3.03;1.35;;;14.20;1.00;;;;;;5055883;28;20214;-61
2022/07/27 05:49:52;;;;;;;5.22;2.10;;;14.00;1.00;;;;;;5060569;28;20228;-62
2022/07/27 05:52:20;;;;;;;4.78;1.90;;;14.10;1.00;;;;;;5067940;28;20232;-61
2022/07/27 05:54:47;;;;;;;6.10;1.80;;;14.10;1.00;;;;;;5069722;28;20575;-61
2022/07/27 05:57:15;;;;;;;9.73;1.90;;;14.20;1.00;;;;;;5067558;28;20205;-61
2022/07/27 05:59:42;;;;;;;3.50;1.40;;;14.40;1.00;;;;;;5073603;28;20213;-61
2022/07/27 06:02:09;;;;;;;6.07;1.60;;;14.30;1.00;;;;;;5048864;28;20219;-61
2022/07/27 06:04:36;;;;;;;2.90;1.33;;;14.40;1.00;;;;;;5058478;28;20208;-62
2022/07/27 06:09:47;;;;;;;5.63;1.80;;;14.70;1.00;;;;;;5068698;28;20301;-62
2022/07/27 06:12:15;;;;;;;5.95;1.73;;;14.50;1.00;;;;;;5064833;28;20919;-61
2022/07/27 06:14:42;;;;;;;2.80;1.30;;;14.40;1.00;;;;;;5069848;28;20203;-62
2022/07/27 06:17:10;;;;;;;5.38;1.60;;;14.80;1.00;;;;;;5053949;28;20336;-61
2022/07/27 06:19:38;;;;;;;4.93;1.27;;;14.50;1.00;;;;;;5070397;28;20200;-62
2022/07/27 06:22:05;;;;;;;3.53;1.40;;;14.80;1.00;;;;;;5059305;28;20713;-61
2022/07/27 06:24:32;;;;;;;3.90;1.30;;;14.60;1.00;;;;;;5067357;28;20202;-62
2022/07/27 06:26:59;;;;;;;4.22;1.70;;;;;;;;;;5067804;28;20204;-61
2022/07/27 06:29:28;;;;;;;3.35;1.63;;;14.80;1.00;;;;;;5064429;28;20230;-61
2022/07/27 06:31:54;;;;;;;4.40;1.30;;;14.70;1.00;;;;;;5071947;28;20200;-61
2022/07/27 06:34:21;;;;;;;11.80;1.80;;;14.80;1.00;;;;;;5049386;28;20200;-61
2022/07/27 06:36:48;;;;;;;3.65;1.30;;;14.70;1.00;;;;;;5062389;28;20208;-61
2022/07/27 06:39:15;;;;;;;2.63;1.23;;;14.60;1.00;;;;;;5063177;28;20201;-62
2022/07/27 06:41:41;;;;;;;5.03;1.80;;;14.70;1.00;;;;;;5068850;28;20196;-61
2022/07/27 06:44:08;;;;;;;3.47;1.17;;;14.80;1.00;;;;;;5068300;28;20582;-61
2022/07/27 06:46:36;;;;;;;2.33;1.25;;;14.80;1.00;;;;;;5070175;28;20192;-61
2022/07/27 06:49:03;;;;;;;5.07;1.63;;;14.90;1.00;;;;;;5059566;28;20216;-61
2022/07/27 06:51:30;;;;;;;3.00;1.00;;;14.80;1.00;;;;;;5059930;28;20314;-61
2022/07/27 06:53:57;;;;;;;4.70;1.40;;;14.80;1.00;;;;;;5060085;28;20251;-61
2022/07/27 06:56:24;;;;;;;4.20;1.25;;;15.20;1.00;;;;;;5067064;28;20196;-62
2022/07/27 06:58:51;;;;;;;1.40;1.13;;;14.90;1.00;;;;;;5069449;28;20200;-61
2022/07/27 07:01:18;;;;;;;2.00;1.15;;;15.00;1.00;;;;;;5067046;28;20712;-61
2022/07/27 07:03:46;;;;;;;6.38;1.33;;;14.80;1.00;;;;;;5071151;28;20199;-61
2022/07/27 07:06:13;;;;;;;5.53;1.60;;;15.00;1.00;;;;;;5042524;28;20218;-61
2022/07/27 07:08:40;;;;;;;6.45;1.35;;;14.80;1.00;;;;;;5059651;28;20235;-61
2022/07/27 07:11:08;;;;;;;4.10;1.27;;;15.00;1.00;;;;;;5069898;28;20193;-61
2022/07/27 07:13:35;;;;;;;3.80;1.35;;;15.50;1.00;;;;;;5068603;28;20582;-62
2022/07/27 07:16:02;;;;;;;4.25;1.45;;;15.30;1.00;;;;;;5069010;28;20208;-61
2022/07/27 07:18:28;;;;;;;4.18;1.58;;;15.30;1.00;;;;;;5070615;28;20197;-62
2022/07/27 07:20:57;;;;;;;5.38;1.50;;;15.50;1.00;;;;;;5050399;28;20208;-62
2022/07/27 07:23:23;;;;;;;5.28;1.55;;;15.40;1.00;;;;;;5056717;28;20623;-61
2022/07/27 07:25:51;;;;;;;4.68;1.27;;;15.40;1.00;;;;;;5070743;28;20200;-62
2022/07/27 07:28:20;;;;;;;5.20;1.35;;;15.50;1.00;;;;;;5064147;28;20212;-61
2022/07/27 07:30:47;;;;;;;6.20;1.50;;;17.00;1.00;;;;;;5067572;28;20224;-61
2022/07/27 07:33:14;;;;;;;3.85;1.20;;;15.70;1.00;;;;;;5064128;28;20216;-61
2022/07/27 07:35:42;;;;;;;4.05;1.17;;;16.00;1.00;;;;;;5058560;28;20200;-62
2022/07/27 07:38:10;;;;;;;3.47;1.23;;;15.90;99.90;;;;;;5064713;28;20705;-61
2022/07/27 07:40:37;;;;;;;2.40;1.20;;;15.80;99.90;;;;;;5064393;28;20200;-61
2022/07/27 07:43:05;;;;;;;3.15;1.20;;;15.90;99.90;;;;;;5072373;28;20280;-61
2022/07/27 07:45:36;;;;;;;3.50;1.35;;;15.90;99.90;;;;;;5075530;28;20198;-62
2022/07/27 07:48:06;;;;;;;5.93;1.75;;;16.00;99.90;;;;;;5064635;28;20215;-62
2022/07/27 07:50:33;;;;;;;6.93;1.58;;;16.30;99.90;;;;;;5072927;28;20274;-61
2022/07/27 07:53:00;;;;;;;7.60;1.88;;;16.30;1.00;;;;;;5049682;28;20228;-61
2022/07/27 07:55:29;;;;;;;7.18;0.98;;;16.30;1.00;;;;;;5059721;28;20701;-62
2022/07/27 07:57:58;;;;;;;4.78;1.33;;;16.40;1.00;;;;;;5068719;28;20199;-61
2022/07/27 08:00:25;;;;;;;5.15;1.48;;;16.50;99.90;;;;;;5074840;28;20204;-62
2022/07/27 08:02:53;;;;;;;2.42;1.55;;;14.90;99.90;;;;;;5072557;28;20211;-61
2022/07/27 08:05:21;;;;;;;5.57;1.40;;;16.30;4.40;;;;;;5060549;28;20211;-61
2022/07/27 08:07:49;;;;;;;1.52;0.85;;;16.40;1.00;;;;;;5042928;28;20204;-61
2022/07/27 08:10:17;;;;;;;7.00;1.25;;;16.20;99.90;;;;;;5070725;28;20225;-61
2022/07/27 08:12:47;;;;;;;4.93;1.10;;;16.20;1.00;;;;;;5057986;28;20219;-61
2022/07/27 08:15:15;;;;;;;3.95;1.25;;;16.20;1.00;;;;;;5072659;28;20196;-61
2022/07/27 08:17:43;;;;;;;3.20;1.05;;;16.20;99.90;;;;;;5070149;28;20662;-61
2022/07/27 08:20:11;;;;;;;3.92;1.35;;;16.10;1.00;;;;;;5063642;28;20204;-61
2022/07/27 08:22:38;;;;;;;4.05;0.85;;;16.10;99.90;;;;;;5050818;28;20211;-61
2022/07/27 08:25:06;;;;;;;4.63;1.20;;;15.90;1.00;;;;;;5069178;28;20280;-61
2022/07/27 08:27:33;;;;;;;4.22;1.27;;;16.10;1.00;;;;;;5060046;28;20228;-61
2022/07/27 08:30:02;;;;;;;4.85;1.45;;;16.20;1.00;;;;;;5070164;28;20768;-61
2022/07/27 08:32:28;;;;;;;5.03;1.10;;;17.30;1.00;;;;;;5073503;28;20287;-61
2022/07/27 08:34:55;;;;;;;2.03;1.17;;;16.20;1.00;;;;;;5056303;28;20208;-62
2022/07/27 08:37:22;;;;;;;3.75;1.45;;;18.10;1.00;;;;;;5071740;28;20231;-61
2022/07/27 08:39:49;;;;;;;7.70;1.02;;;16.00;99.90;;;;;;5049912;28;20207;-62
2022/07/27 08:42:17;;;;;;;8.15;1.48;;;16.20;1.00;;;;;;5061924;28;20212;-61
2022/07/27 08:44:45;;;;;;;9.18;2.70;;;16.20;1.00;;;;;;5067401;28;20193;-62
2022/07/27 08:47:14;;;;;;;3.78;1.15;;;16.20;1.00;;;;;;5072653;28;20200;-61
2022/07/27 08:49:42;;;;;;;6.28;1.77;;;16.50;1.00;;;;;;5069905;28;20239;-61
2022/07/27 08:52:11;;;;;;;5.82;1.52;;;16.70;99.90;;;;;;5064114;28;20232;-61
2022/07/27 08:54:39;;;;;;;8.13;2.05;;;16.40;99.90;;;;;;5046961;28;20207;-61
2022/07/27 08:57:08;;;;;;;4.45;1.23;;;16.50;1.00;;;;;;5067534;28;20200;-61
2022/07/27 08:59:35;;;;;;;3.88;1.10;;;16.40;1.00;;;;;;5062436;28;20251;-62
2022/07/27 09:02:02;;;;;;;7.57;1.67;;;16.70;1.00;;;;;;5071450;28;20197;-61
2022/07/27 09:04:31;;;;;;;2.53;1.10;;;16.50;1.00;;;;;;5075137;28;20204;-61
2022/07/27 09:06:58;;;;;;;4.22;1.08;;;16.80;1.00;;;;;;5060106;28;20376;-61
2022/07/27 09:09:24;;;;;;;2.97;1.15;;;16.80;99.90;;;;;;5071735;28;20227;-61
2022/07/27 09:12:06;;;;;;;3.42;1.25;;;15.30;1.00;;;;;;5044731;28;20208;-62
2022/07/27 09:14:34;;;;;;;2.35;1.25;;;17.00;1.00;;;;;;5061426;28;20203;-61
2022/07/27 09:17:19;;;;;;;5.30;1.17;;;17.10;1.00;;;;;;5065591;28;20195;-61
2022/07/27 09:19:54;;;;;;;4.15;1.48;;;17.10;1.00;;;;;;5065732;28;20212;-61
2022/07/27 09:22:42;;;;;;;4.50;1.35;;;17.10;1.00;;;;;;5059768;28;20268;-61
2022/07/27 09:25:09;;;;;;;1.75;0.90;;;17.10;1.00;;;;;;5071984;28;20828;-61
2022/07/27 09:27:37;;;;;;;3.90;1.17;;;17.10;99.90;;;;;;5047851;28;20208;-61
2022/07/27 09:30:05;;;;;;;2.28;0.85;;;17.10;99.90;;;;;;5060774;28;20219;-60
2022/07/27 09:32:32;;;;;;;6.70;1.13;;;17.10;99.90;;;;;;5068301;28;20211;-60
2022/07/27 09:35:15;;;;;;;9.05;1.63;;;17.50;99.90;;;;;;5067431;28;20664;-62
2022/07/27 09:37:42;;;;;;;2.30;1.05;;;17.30;99.90;;;;;;5069414;28;20779;-61
2022/07/27 09:40:14;;;;;;;6.32;1.67;;;17.50;99.90;;;;;;5069263;28;20200;-61
2022/07/27 09:42:41;;;;;;;9.50;1.63;;;17.60;99.90;;;;;;5048136;28;20214;-61
2022/07/27 09:45:29;;;;;;;3.40;1.30;;;17.60;99.90;;;;;;5060280;28;20847;-61
2022/07/27 09:48:11;;;;;;;3.95;1.33;;;17.50;3.90;;;;;;5069285;28;20200;-61
2022/07/27 09:50:41;;;;;;;4.75;1.30;;;17.60;14.10;;;;;;5069591;28;20238;-61
2022/07/27 09:53:18;;;;;;;3.63;1.40;;;17.50;99.10;;;;;;5071216;28;21195;-61
2022/07/27 09:55:46;;;;;;;3.92;1.00;;;17.60;21.50;;;;;;5061883;28;20196;-61
2022/07/27 09:58:13;;;;;;;2.17;0.90;;;17.80;1.00;;;;;;5049205;28;20689;-61
2022/07/27 10:00:40;;;;;;;3.80;1.42;;;18.10;18.80;;;;;;5059818;28;20332;-61
2022/07/27 10:03:08;;;;;;;2.15;1.08;;;17.80;1.00;;;;;;5071407;28;20779;-61
2022/07/27 10:05:35;;;;;;;3.95;0.93;;;17.70;1.00;;;;;;5071039;28;20258;-62
2022/07/27 10:08:03;;;;;;;4.85;1.70;;;17.90;1.00;;;;;;5070324;28;20200;-61
2022/07/27 10:10:30;;;;;;;4.35;1.17;;;18.10;48.10;;;;;;5073165;28;20223;-61
2022/07/27 10:12:57;;;;;;;4.38;1.38;;;17.90;66.60;;;;;;5049674;28;20197;-61
2022/07/27 10:15:24;;;;;;;5.13;1.00;;;17.90;1.00;;;;;;5062569;28;21378;-61
2022/07/27 10:18:00;;;;;;;7.90;1.40;;;18.50;99.90;;;;;;5068773;28;20192;-61
2022/07/27 10:20:28;;;;;;;5.60;1.08;;;18.10;99.90;;;;;;5067365;28;20245;-61
2022/07/27 10:22:57;;;;;;;5.15;1.58;;;18.30;99.90;;;;;;5062380;28;20203;-62
2022/07/27 10:25:27;;;;;;;11.80;2.13;;;18.00;99.90;;;;;;5073281;28;20207;-61
2022/07/27 10:28:10;;;;;;;3.65;1.20;;;17.80;99.90;;;;;;5042023;28;20648;-61
2022/07/27 10:30:38;;;;;;;2.58;1.50;;;17.80;99.90;;;;;;5063353;28;20731;-61
2022/07/27 10:33:16;;;;;;;3.17;1.38;;;17.50;1.00;;;;;;5057432;28;20214;-62
2022/07/27 10:35:43;;;;;;;2.33;1.00;;;17.70;99.90;;;;;;5069537;28;20200;-61
2022/07/27 10:38:14;;;;;;;4.75;1.42;;;17.60;1.00;;;;;;5072004;28;20207;-61
2022/07/27 10:40:43;;;;;;;3.72;1.50;;;17.70;99.90;;;;;;5073575;28;20198;-61
2022/07/27 10:43:17;;;;;;;5.10;1.63;;;17.60;1.00;;;;;;5069351;28;20216;-61
2022/07/27 10:45:46;;;;;;;7.53;1.52;;;17.50;1.00;;;;;;5047568;28;20686;-61
2022/07/27 10:48:36;;;;;;;3.03;1.27;;;17.40;1.00;;;;;;5058660;28;20204;-61
2022/07/27 10:51:04;;;;;;;3.90;1.05;;;17.50;1.00;;;;;;5066582;28;20258;-61
2022/07/27 10:53:35;;;;;;;3.42;1.20;;;17.60;1.00;;;;;;5077708;28;20736;-61
2022/07/27 10:56:04;;;;;;;6.60;1.15;;;;;;;;;;5077162;28;20402;-61
2022/07/27 10:58:50;;;;;;;5.72;1.10;;;17.70;1.00;;;;;;5071635;28;20200;-61
2022/07/27 11:01:18;;;;;;;4.88;1.20;;;17.80;1.00;;;;;;5077465;28;20192;-61
2022/07/27 11:03:52;;;;;;;7.07;1.35;;;17.50;1.00;;;;;;5064166;28;20641;-61
2022/07/27 11:06:30;;;;;;;5.70;1.20;;;17.70;1.00;;;;;;5075493;28;20201;-61
2022/07/27 11:08:58;;;;;;;6.10;1.70;;;17.80;1.00;;;;;;5071921;28;20219;-61
2022/07/27 11:11:27;;;;;;;7.75;1.83;;;17.90;1.00;;;;;;5073577;28;20238;-61
2022/07/27 11:13:57;;;;;;;4.88;1.17;;;18.00;1.00;;;;;;5073392;28;20192;-61
2022/07/27 11:16:26;;;;;;;3.83;1.40;;;17.80;1.00;;;;;;5054825;28;20210;-61
2022/07/27 11:19:00;;;;;;;4.47;1.77;;;17.90;1.00;;;;;;5060807;28;20291;-62
2022/07/27 11:21:28;;;;;;;3.42;1.20;;;17.90;1.00;;;;;;5077073;28;20223;-61
2022/07/27 11:23:57;;;;;;;6.32;1.10;;;17.90;1.00;;;;;;5072137;28;20223;-61
2022/07/27 11:26:27;;;;;;;7.68;1.52;;;18.10;1.00;;;;;;5075141;28;20199;-61
2022/07/27 11:28:54;;;;;;;4.18;1.30;;;18.10;1.00;;;;;;5066447;28;20287;-61
2022/07/27 11:31:21;;;;;;;8.82;1.27;;;18.10;99.90;;;;;;5054458;28;20236;-61
2022/07/27 11:33:53;;;;;;;4.07;1.20;;;18.50;99.90;;;;;;5060115;28;20197;-61
2022/07/27 11:36:21;;;;;;;5.57;1.35;;;18.10;99.90;;;;;;5078254;28;20249;-61
2022/07/27 11:38:51;;;;;;;3.38;1.20;;;18.20;83.90;;;;;;5071213;28;20197;-61
2022/07/27 11:41:22;;;;;;;2.08;1.35;;;18.50;1.00;;;;;;5079670;28;21296;-61
2022/07/27 11:43:50;;;;;;;2.30;1.10;;;18.00;1.00;;;;;;5075812;28;20188;-61
2022/07/27 11:46:21;;;;;;;2.08;1.08;;;18.30;1.00;;;;;;5054910;28;20200;-61
2022/07/27 11:48:54;;;;;;;3.80;1.25;;;18.20;1.00;;;;;;5063857;28;20220;-61
2022/07/27 11:51:21;;;;;;;2.10;0.80;;;18.20;1.00;;;;;;5076024;28;20232;-61
2022/07/27 11:53:48;;;;;;;2.22;0.80;;;18.40;1.00;;;;;;5075645;28;20815;-61
2022/07/27 11:56:22;;;;;;;1.90;0.90;;;18.40;1.00;;;;;;5075303;28;20675;-61
2022/07/27 11:59:10;;;;;;;4.57;1.15;;;18.60;1.00;;;;;;5074574;28;20191;-61
2022/07/27 12:01:38;;;;;;;4.95;1.25;;;19.00;1.00;;;;;;5051114;28;20582;-62
2022/07/27 12:04:07;;;;;;;4.40;1.17;;;19.10;1.00;;;;;;5044760;28;20657;-61
2022/07/27 12:06:36;;;;;;;2.33;0.77;;;19.00;99.90;;;;;;5061480;28;20247;-61
2022/07/27 12:09:05;;;;;;;1.85;0.88;;;18.80;99.90;;;;;;5070298;28;20228;-61
2022/07/27 12:11:46;;;;;;;2.47;1.10;;;18.80;1.00;;;;;;5069784;28;20223;-61
2022/07/27 12:14:14;;;;;;;5.32;0.98;;;18.80;1.00;;;;;;5072891;28;20196;-61
2022/07/27 12:16:41;;;;;;;2.50;0.90;;;16.20;1.00;;;;;;5060699;28;20196;-62
2022/07/27 12:19:08;;;;;;;2.72;0.95;;;19.20;1.00;;;;;;5056223;28;20786;-62
2022/07/27 12:21:35;;;;;;;2.47;0.80;;;19.20;1.00;;;;;;5070879;28;20196;-61
2022/07/27 12:24:02;;;;;;;1.75;1.05;;;19.10;1.00;;;;;;5060760;28;20200;-61
2022/07/27 12:26:30;;;;;;;1.05;0.85;;;;;;;;;;5069974;28;20288;-61
2022/07/27 12:29:07;;;;;;;3.80;1.35;;;19.20;1.00;;;;;;5062899;28;20204;-61
2022/07/27 12:31:37;;;;;;;11.50;1.05;;;19.10;1.00;;;;;;5068803;28;20223;-61
2022/07/27 12:34:06;;;;;;;2.00;1.00;;;18.80;1.00;;;;;;5048956;28;20211;-61
2022/07/27 12:36:33;;;;;;;4.40;1.20;;;18.70;1.00;;;;;;5058776;28;20205;-61
2022/07/27 12:39:00;;;;;;;2.80;1.23;;;18.80;1.00;;;;;;5062353;28;20677;-61
2022/07/27 12:41:29;;;;;;;4.10;1.10;;;18.70;1.00;;;;;;5071899;28;20201;-61
2022/07/27 12:44:06;;;;;;;3.95;1.05;;;18.70;1.00;;;;;;5068904;28;20204;-61
2022/07/27 12:46:33;;;;;;;1.60;1.20;;;18.60;1.00;;;;;;5070734;28;20188;-61
2022/07/27 12:49:14;;;;;;;2.17;0.90;;;18.60;1.00;;;;;;5049126;28;20213;-61
2022/07/27 12:51:41;;;;;;;2.85;1.20;;;18.50;1.00;;;;;;5056032;28;20240;-61
2022/07/27 12:54:08;;;;;;;2.30;1.08;;;18.40;1.00;;;;;;5049648;28;20216;-61
2022/07/27 12:56:35;;;;;;;2.70;1.00;;;18.70;1.00;;;;;;5070099;28;20204;-61
2022/07/27 12:59:04;;;;;;;4.05;1.08;;;18.80;1.00;;;;;;5071211;28;20204;-61
2022/07/27 13:01:31;;;;;;;3.05;1.02;;;19.30;1.00;;;;;;5070805;28;20257;-61
2022/07/27 13:03:57;;;;;;;5.35;1.20;;;19.10;1.00;;;;;;5069477;28;20192;-61
2022/07/27 13:06:26;;;;;;;1.45;0.80;;;18.90;1.00;;;;;;5041566;28;20212;-61